sensor_id;sensor_type;location;lat;lon;timestamp;P1;durP1;ratioP1;P2;durP2;ratioP2
10463;SDS011;5279;42.048;24.638;2023-04-19T00:02:05;0.50;;;0.50;;
10463;SDS011;5279;42.048;24.638;2023-04-19T00:04:33;0.73;;;0.73;;
10463;SDS011;5279;42.048;24.638;2023-04-19T00:07:02;0.70;;;0.70;;
10463;SDS011;5279;42.048;24.638;2023-04-19T00:09:29;0.70;;;0.70;;
10463;SDS011;5279;42.048;24.638;2023-04-19T00:11:56;0.70;;;0.70;;
10463;SDS011;5279;42.048;24.638;2023-04-19T00:14:23;0.50;;;0.50;;
10463;SDS011;5279;42.048;24.638;2023-04-19T00:16:51;0.60;;;0.60;;
10463;SDS011;5279;42.048;24.638;2023-04-19T00:19:18;0.60;;;0.60;;
10463;SDS011;5279;42.048;24.638;2023-04-19T00:21:45;0.63;;;0.63;;
10463;SDS011;5279;42.048;24.638;2023-04-19T00:24:12;1.63;;;0.60;;
10463;SDS011;5279;42.048;24.638;2023-04-19T00:26:40;0.53;;;0.50;;
10463;SDS011;5279;42.048;24.638;2023-04-19T00:29:07;0.50;;;0.50;;
10463;SDS011;5279;42.048;24.638;2023-04-19T00:31:33;0.43;;;0.43;;
10463;SDS011;5279;42.048;24.638;2023-04-19T00:34:02;0.60;;;0.60;;
10463;SDS011;5279;42.048;24.638;2023-04-19T00:36:29;0.50;;;0.50;;
10463;SDS011;5279;42.048;24.638;2023-04-19T00:38:56;0.83;;;0.70;;
10463;SDS011;5279;42.048;24.638;2023-04-19T00:41:23;0.60;;;0.60;;
10463;SDS011;5279;42.048;24.638;2023-04-19T00:43:49;0.50;;;0.50;;
10463;SDS011;5279;42.048;24.638;2023-04-19T00:46:16;0.60;;;0.60;;
10463;SDS011;5279;42.048;24.638;2023-04-19T00:48:43;0.40;;;0.40;;
10463;SDS011;5279;42.048;24.638;2023-04-19T00:51:12;1.47;;;0.90;;
10463;SDS011;5279;42.048;24.638;2023-04-19T00:53:39;0.60;;;0.57;;
10463;SDS011;5279;42.048;24.638;2023-04-19T00:56:06;0.77;;;0.77;;
10463;SDS011;5279;42.048;24.638;2023-04-19T00:58:35;2.23;;;0.60;;
10463;SDS011;5279;42.048;24.638;2023-04-19T01:01:03;0.53;;;0.53;;
10463;SDS011;5279;42.048;24.638;2023-04-19T01:03:30;2.10;;;0.90;;
10463;SDS011;5279;42.048;24.638;2023-04-19T01:05:58;0.67;;;0.67;;
10463;SDS011;5279;42.048;24.638;2023-04-19T01:08:27;0.57;;;0.57;;
10463;SDS011;5279;42.048;24.638;2023-04-19T01:10:54;0.43;;;0.43;;
10463;SDS011;5279;42.048;24.638;2023-04-19T01:13:22;0.40;;;0.40;;
10463;SDS011;5279;42.048;24.638;2023-04-19T01:15:49;0.60;;;0.60;;
10463;SDS011;5279;42.048;24.638;2023-04-19T01:18:16;0.90;;;0.90;;
10463;SDS011;5279;42.048;24.638;2023-04-19T01:20:43;0.60;;;0.60;;
10463;SDS011;5279;42.048;24.638;2023-04-19T01:23:11;1.73;;;0.80;;
10463;SDS011;5279;42.048;24.638;2023-04-19T01:25:39;0.70;;;0.70;;
10463;SDS011;5279;42.048;24.638;2023-04-19T01:28:06;0.60;;;0.60;;
10463;SDS011;5279;42.048;24.638;2023-04-19T01:30:33;3.30;;;0.87;;
10463;SDS011;5279;42.048;24.638;2023-04-19T01:33:00;0.80;;;0.80;;
10463;SDS011;5279;42.048;24.638;2023-04-19T01:35:27;0.57;;;0.57;;
10463;SDS011;5279;42.048;24.638;2023-04-19T01:37:55;0.60;;;0.60;;
10463;SDS011;5279;42.048;24.638;2023-04-19T01:40:24;0.80;;;0.80;;
10463;SDS011;5279;42.048;24.638;2023-04-19T01:42:51;0.80;;;0.80;;
10463;SDS011;5279;42.048;24.638;2023-04-19T01:45:19;0.80;;;0.77;;
10463;SDS011;5279;42.048;24.638;2023-04-19T01:47:45;0.80;;;0.80;;
10463;SDS011;5279;42.048;24.638;2023-04-19T01:50:12;0.67;;;0.67;;
10463;SDS011;5279;42.048;24.638;2023-04-19T01:52:39;0.90;;;0.90;;
10463;SDS011;5279;42.048;24.638;2023-04-19T01:55:07;0.70;;;0.70;;
10463;SDS011;5279;42.048;24.638;2023-04-19T01:57:35;1.80;;;0.70;;
10463;SDS011;5279;42.048;24.638;2023-04-19T02:00:03;0.73;;;0.73;;
10463;SDS011;5279;42.048;24.638;2023-04-19T02:02:30;0.60;;;0.60;;
10463;SDS011;5279;42.048;24.638;2023-04-19T02:04:57;1.07;;;0.80;;
10463;SDS011;5279;42.048;24.638;2023-04-19T02:07:24;1.10;;;1.00;;
10463;SDS011;5279;42.048;24.638;2023-04-19T02:09:51;2.73;;;0.90;;
10463;SDS011;5279;42.048;24.638;2023-04-19T02:12:18;0.90;;;0.90;;
10463;SDS011;5279;42.048;24.638;2023-04-19T02:14:46;0.60;;;0.60;;
10463;SDS011;5279;42.048;24.638;2023-04-19T02:17:13;0.70;;;0.70;;
10463;SDS011;5279;42.048;24.638;2023-04-19T02:19:40;0.73;;;0.73;;
10463;SDS011;5279;42.048;24.638;2023-04-19T02:22:07;0.70;;;0.70;;
10463;SDS011;5279;42.048;24.638;2023-04-19T02:24:34;0.60;;;0.60;;
10463;SDS011;5279;42.048;24.638;2023-04-19T02:27:01;0.60;;;0.60;;
10463;SDS011;5279;42.048;24.638;2023-04-19T02:29:28;0.30;;;0.30;;
10463;SDS011;5279;42.048;24.638;2023-04-19T02:31:56;0.70;;;0.70;;
10463;SDS011;5279;42.048;24.638;2023-04-19T02:34:23;0.80;;;0.80;;
10463;SDS011;5279;42.048;24.638;2023-04-19T02:36:50;0.70;;;0.70;;
10463;SDS011;5279;42.048;24.638;2023-04-19T02:39:17;2.10;;;0.70;;
10463;SDS011;5279;42.048;24.638;2023-04-19T02:41:44;0.63;;;0.63;;
10463;SDS011;5279;42.048;24.638;2023-04-19T02:44:11;0.60;;;0.60;;
10463;SDS011;5279;42.048;24.638;2023-04-19T02:46:38;0.80;;;0.80;;
10463;SDS011;5279;42.048;24.638;2023-04-19T02:49:06;0.67;;;0.67;;
10463;SDS011;5279;42.048;24.638;2023-04-19T02:51:33;0.50;;;0.50;;
10463;SDS011;5279;42.048;24.638;2023-04-19T02:54:00;0.50;;;0.50;;
10463;SDS011;5279;42.048;24.638;2023-04-19T02:56:27;0.60;;;0.60;;
10463;SDS011;5279;42.048;24.638;2023-04-19T02:58:54;0.70;;;0.70;;
10463;SDS011;5279;42.048;24.638;2023-04-19T03:01:21;0.70;;;0.70;;
10463;SDS011;5279;42.048;24.638;2023-04-19T03:03:48;0.70;;;0.70;;
10463;SDS011;5279;42.048;24.638;2023-04-19T03:06:16;0.70;;;0.70;;
10463;SDS011;5279;42.048;24.638;2023-04-19T03:08:43;0.63;;;0.63;;
10463;SDS011;5279;42.048;24.638;2023-04-19T03:11:10;0.70;;;0.70;;
10463;SDS011;5279;42.048;24.638;2023-04-19T03:13:38;0.60;;;0.60;;
10463;SDS011;5279;42.048;24.638;2023-04-19T03:16:08;1.17;;;0.70;;
10463;SDS011;5279;42.048;24.638;2023-04-19T03:18:35;0.80;;;0.80;;
10463;SDS011;5279;42.048;24.638;2023-04-19T03:21:02;0.87;;;0.87;;
10463;SDS011;5279;42.048;24.638;2023-04-19T03:23:31;0.80;;;0.80;;
10463;SDS011;5279;42.048;24.638;2023-04-19T03:25:58;0.60;;;0.60;;
10463;SDS011;5279;42.048;24.638;2023-04-19T03:28:25;0.50;;;0.50;;
10463;SDS011;5279;42.048;24.638;2023-04-19T03:30:52;0.80;;;0.80;;
10463;SDS011;5279;42.048;24.638;2023-04-19T03:33:19;0.53;;;0.53;;
10463;SDS011;5279;42.048;24.638;2023-04-19T03:35:46;0.60;;;0.60;;
10463;SDS011;5279;42.048;24.638;2023-04-19T03:38:13;0.53;;;0.53;;
10463;SDS011;5279;42.048;24.638;2023-04-19T03:40:42;0.73;;;0.73;;
10463;SDS011;5279;42.048;24.638;2023-04-19T03:43:09;0.73;;;0.73;;
10463;SDS011;5279;42.048;24.638;2023-04-19T03:45:35;0.70;;;0.70;;
10463;SDS011;5279;42.048;24.638;2023-04-19T03:48:02;0.60;;;0.60;;
10463;SDS011;5279;42.048;24.638;2023-04-19T03:50:29;0.80;;;0.80;;
10463;SDS011;5279;42.048;24.638;2023-04-19T03:52:56;0.70;;;0.70;;
10463;SDS011;5279;42.048;24.638;2023-04-19T03:55:23;1.03;;;0.93;;
10463;SDS011;5279;42.048;24.638;2023-04-19T03:57:52;0.80;;;0.80;;
10463;SDS011;5279;42.048;24.638;2023-04-19T04:00:19;0.60;;;0.60;;
10463;SDS011;5279;42.048;24.638;2023-04-19T04:02:46;0.70;;;0.70;;
10463;SDS011;5279;42.048;24.638;2023-04-19T04:05:13;1.00;;;1.00;;
10463;SDS011;5279;42.048;24.638;2023-04-19T04:07:41;0.70;;;0.70;;
10463;SDS011;5279;42.048;24.638;2023-04-19T04:10:08;1.00;;;1.00;;
10463;SDS011;5279;42.048;24.638;2023-04-19T04:12:35;0.97;;;0.87;;
10463;SDS011;5279;42.048;24.638;2023-04-19T04:15:03;0.90;;;0.90;;
10463;SDS011;5279;42.048;24.638;2023-04-19T04:17:31;0.90;;;0.90;;
10463;SDS011;5279;42.048;24.638;2023-04-19T04:19:58;1.80;;;0.70;;
10463;SDS011;5279;42.048;24.638;2023-04-19T04:22:25;1.87;;;0.90;;
10463;SDS011;5279;42.048;24.638;2023-04-19T04:24:52;0.80;;;0.80;;
10463;SDS011;5279;42.048;24.638;2023-04-19T04:27:22;0.87;;;0.87;;
10463;SDS011;5279;42.048;24.638;2023-04-19T04:29:49;0.80;;;0.80;;
10463;SDS011;5279;42.048;24.638;2023-04-19T04:32:17;1.33;;;1.13;;
10463;SDS011;5279;42.048;24.638;2023-04-19T04:34:47;1.17;;;0.90;;
10463;SDS011;5279;42.048;24.638;2023-04-19T04:37:14;1.67;;;1.07;;
10463;SDS011;5279;42.048;24.638;2023-04-19T04:39:42;0.63;;;0.63;;
10463;SDS011;5279;42.048;24.638;2023-04-19T04:42:09;1.03;;;0.93;;
10463;SDS011;5279;42.048;24.638;2023-04-19T04:44:36;0.90;;;0.90;;
10463;SDS011;5279;42.048;24.638;2023-04-19T04:47:03;1.10;;;0.90;;
10463;SDS011;5279;42.048;24.638;2023-04-19T04:49:32;0.70;;;0.70;;
10463;SDS011;5279;42.048;24.638;2023-04-19T04:52:00;1.00;;;0.90;;
10463;SDS011;5279;42.048;24.638;2023-04-19T04:54:27;1.00;;;1.00;;
10463;SDS011;5279;42.048;24.638;2023-04-19T04:56:54;0.80;;;0.80;;
10463;SDS011;5279;42.048;24.638;2023-04-19T04:59:21;0.80;;;0.80;;
10463;SDS011;5279;42.048;24.638;2023-04-19T05:01:48;0.77;;;0.77;;
10463;SDS011;5279;42.048;24.638;2023-04-19T05:04:15;1.10;;;1.00;;
10463;SDS011;5279;42.048;24.638;2023-04-19T05:06:49;1.20;;;1.10;;
10463;SDS011;5279;42.048;24.638;2023-04-19T05:09:16;0.63;;;0.63;;
10463;SDS011;5279;42.048;24.638;2023-04-19T05:11:43;0.60;;;0.60;;
10463;SDS011;5279;42.048;24.638;2023-04-19T05:14:10;0.87;;;0.87;;
10463;SDS011;5279;42.048;24.638;2023-04-19T05:16:37;2.50;;;1.07;;
10463;SDS011;5279;42.048;24.638;2023-04-19T05:19:05;0.70;;;0.70;;
10463;SDS011;5279;42.048;24.638;2023-04-19T05:21:32;1.00;;;1.00;;
10463;SDS011;5279;42.048;24.638;2023-04-19T05:24:00;0.80;;;0.80;;
10463;SDS011;5279;42.048;24.638;2023-04-19T05:26:28;1.00;;;1.00;;
10463;SDS011;5279;42.048;24.638;2023-04-19T05:28:56;2.20;;;1.00;;
10463;SDS011;5279;42.048;24.638;2023-04-19T05:31:23;0.70;;;0.70;;
10463;SDS011;5279;42.048;24.638;2023-04-19T05:33:50;1.10;;;1.00;;
10463;SDS011;5279;42.048;24.638;2023-04-19T05:36:16;1.33;;;1.23;;
10463;SDS011;5279;42.048;24.638;2023-04-19T05:38:43;0.80;;;0.80;;
10463;SDS011;5279;42.048;24.638;2023-04-19T05:41:12;1.03;;;1.03;;
10463;SDS011;5279;42.048;24.638;2023-04-19T05:43:38;1.00;;;1.00;;
10463;SDS011;5279;42.048;24.638;2023-04-19T05:46:05;1.07;;;1.00;;
10463;SDS011;5279;42.048;24.638;2023-04-19T05:48:32;1.03;;;1.03;;
10463;SDS011;5279;42.048;24.638;2023-04-19T05:50:59;0.80;;;0.80;;
10463;SDS011;5279;42.048;24.638;2023-04-19T05:53:26;0.90;;;0.90;;
10463;SDS011;5279;42.048;24.638;2023-04-19T05:55:52;0.87;;;0.87;;
10463;SDS011;5279;42.048;24.638;2023-04-19T05:58:21;1.07;;;1.07;;
10463;SDS011;5279;42.048;24.638;2023-04-19T06:00:48;1.17;;;0.80;;
10463;SDS011;5279;42.048;24.638;2023-04-19T06:03:16;1.00;;;1.00;;
10463;SDS011;5279;42.048;24.638;2023-04-19T06:05:43;0.70;;;0.70;;
10463;SDS011;5279;42.048;24.638;2023-04-19T06:08:10;0.90;;;0.90;;
10463;SDS011;5279;42.048;24.638;2023-04-19T06:10:40;1.13;;;0.80;;
10463;SDS011;5279;42.048;24.638;2023-04-19T06:13:08;0.80;;;0.80;;
10463;SDS011;5279;42.048;24.638;2023-04-19T06:15:36;0.90;;;0.90;;
10463;SDS011;5279;42.048;24.638;2023-04-19T06:18:04;1.57;;;1.00;;
10463;SDS011;5279;42.048;24.638;2023-04-19T06:20:34;1.10;;;1.00;;
10463;SDS011;5279;42.048;24.638;2023-04-19T06:23:01;0.77;;;0.77;;
10463;SDS011;5279;42.048;24.638;2023-04-19T06:25:27;1.03;;;0.90;;
10463;SDS011;5279;42.048;24.638;2023-04-19T06:27:55;0.70;;;0.70;;
10463;SDS011;5279;42.048;24.638;2023-04-19T06:30:22;0.97;;;0.80;;
10463;SDS011;5279;42.048;24.638;2023-04-19T06:32:50;0.90;;;0.90;;
10463;SDS011;5279;42.048;24.638;2023-04-19T06:35:17;1.07;;;0.97;;
10463;SDS011;5279;42.048;24.638;2023-04-19T06:37:45;1.27;;;0.60;;
10463;SDS011;5279;42.048;24.638;2023-04-19T06:40:12;0.70;;;0.70;;
10463;SDS011;5279;42.048;24.638;2023-04-19T06:42:38;0.87;;;0.87;;
10463;SDS011;5279;42.048;24.638;2023-04-19T06:45:06;1.07;;;0.97;;
10463;SDS011;5279;42.048;24.638;2023-04-19T06:47:33;0.90;;;0.90;;
10463;SDS011;5279;42.048;24.638;2023-04-19T06:50:01;0.90;;;0.90;;
10463;SDS011;5279;42.048;24.638;2023-04-19T06:52:28;0.90;;;0.90;;
10463;SDS011;5279;42.048;24.638;2023-04-19T06:54:55;1.00;;;1.00;;
10463;SDS011;5279;42.048;24.638;2023-04-19T06:57:22;0.90;;;0.90;;
10463;SDS011;5279;42.048;24.638;2023-04-19T06:59:49;0.80;;;0.80;;
10463;SDS011;5279;42.048;24.638;2023-04-19T07:02:18;1.10;;;1.10;;
10463;SDS011;5279;42.048;24.638;2023-04-19T07:04:45;1.10;;;1.00;;
10463;SDS011;5279;42.048;24.638;2023-04-19T07:07:13;1.17;;;0.80;;
10463;SDS011;5279;42.048;24.638;2023-04-19T07:09:42;1.33;;;0.93;;
10463;SDS011;5279;42.048;24.638;2023-04-19T07:12:08;1.00;;;1.00;;
10463;SDS011;5279;42.048;24.638;2023-04-19T07:14:35;1.57;;;1.20;;
10463;SDS011;5279;42.048;24.638;2023-04-19T07:17:03;0.70;;;0.70;;
10463;SDS011;5279;42.048;24.638;2023-04-19T07:19:30;0.83;;;0.83;;
10463;SDS011;5279;42.048;24.638;2023-04-19T07:21:57;1.43;;;0.90;;
10463;SDS011;5279;42.048;24.638;2023-04-19T07:24:25;1.30;;;1.20;;
10463;SDS011;5279;42.048;24.638;2023-04-19T09:20:58;1.00;;;0.93;;
10463;SDS011;5279;42.048;24.638;2023-04-19T09:23:26;0.93;;;0.87;;
10463;SDS011;5279;42.048;24.638;2023-04-19T09:25:54;1.17;;;0.90;;
10463;SDS011;5279;42.048;24.638;2023-04-19T09:28:24;1.20;;;1.10;;
10463;SDS011;5279;42.048;24.638;2023-04-19T09:30:51;0.70;;;0.70;;
10463;SDS011;5279;42.048;24.638;2023-04-19T09:33:32;0.87;;;0.87;;
10463;SDS011;5279;42.048;24.638;2023-04-19T09:36:01;0.77;;;0.77;;
10463;SDS011;5279;42.048;24.638;2023-04-19T09:38:28;0.90;;;0.90;;
10463;SDS011;5279;42.048;24.638;2023-04-19T09:41:05;0.60;;;0.60;;
10463;SDS011;5279;42.048;24.638;2023-04-19T09:43:33;1.03;;;1.03;;
10463;SDS011;5279;42.048;24.638;2023-04-19T09:46:00;0.80;;;0.80;;
10463;SDS011;5279;42.048;24.638;2023-04-19T09:48:27;1.03;;;1.00;;
10463;SDS011;5279;42.048;24.638;2023-04-19T09:50:54;1.13;;;1.10;;
10463;SDS011;5279;42.048;24.638;2023-04-19T09:53:23;0.97;;;0.97;;
10463;SDS011;5279;42.048;24.638;2023-04-19T09:55:51;1.07;;;1.00;;
10463;SDS011;5279;42.048;24.638;2023-04-19T09:58:19;2.07;;;0.80;;
10463;SDS011;5279;42.048;24.638;2023-04-19T10:00:47;0.90;;;0.80;;
10463;SDS011;5279;42.048;24.638;2023-04-19T10:03:16;0.70;;;0.70;;
10463;SDS011;5279;42.048;24.638;2023-04-19T10:05:44;0.80;;;0.80;;
10463;SDS011;5279;42.048;24.638;2023-04-19T10:08:12;0.70;;;0.70;;
10463;SDS011;5279;42.048;24.638;2023-04-19T10:10:41;0.80;;;0.80;;
10463;SDS011;5279;42.048;24.638;2023-04-19T10:13:13;2.10;;;0.80;;
10463;SDS011;5279;42.048;24.638;2023-04-19T10:15:46;0.87;;;0.70;;
10463;SDS011;5279;42.048;24.638;2023-04-19T10:18:14;0.90;;;0.70;;
10463;SDS011;5279;42.048;24.638;2023-04-19T10:20:44;0.80;;;0.80;;
10463;SDS011;5279;42.048;24.638;2023-04-19T10:23:15;0.70;;;0.70;;
10463;SDS011;5279;42.048;24.638;2023-04-19T10:25:45;0.80;;;0.80;;
10463;SDS011;5279;42.048;24.638;2023-04-19T10:28:14;0.70;;;0.70;;
10463;SDS011;5279;42.048;24.638;2023-04-19T10:30:51;0.83;;;0.83;;
10463;SDS011;5279;42.048;24.638;2023-04-19T10:33:23;0.47;;;0.40;;
10463;SDS011;5279;42.048;24.638;2023-04-19T10:35:53;0.70;;;0.70;;
10463;SDS011;5279;42.048;24.638;2023-04-19T10:38:21;0.60;;;0.60;;
10463;SDS011;5279;42.048;24.638;2023-04-19T10:41:03;1.00;;;0.90;;
10463;SDS011;5279;42.048;24.638;2023-04-19T10:43:36;0.60;;;0.60;;
10463;SDS011;5279;42.048;24.638;2023-04-19T10:46:05;0.70;;;0.70;;
10463;SDS011;5279;42.048;24.638;2023-04-19T10:48:40;0.97;;;0.97;;
10463;SDS011;5279;42.048;24.638;2023-04-19T10:51:18;0.83;;;0.70;;
10463;SDS011;5279;42.048;24.638;2023-04-19T10:53:48;0.60;;;0.60;;
10463;SDS011;5279;42.048;24.638;2023-04-19T10:56:18;0.43;;;0.43;;
10463;SDS011;5279;42.048;24.638;2023-04-19T11:01:49;1.10;;;0.60;;
10463;SDS011;5279;42.048;24.638;2023-04-19T11:04:21;0.80;;;0.80;;
10463;SDS011;5279;42.048;24.638;2023-04-19T11:06:58;2.10;;;0.73;;
10463;SDS011;5279;42.048;24.638;2023-04-19T11:09:27;0.50;;;0.50;;
10463;SDS011;5279;42.048;24.638;2023-04-19T11:11:58;0.63;;;0.63;;
10463;SDS011;5279;42.048;24.638;2023-04-19T11:14:27;0.70;;;0.70;;
10463;SDS011;5279;42.048;24.638;2023-04-19T11:16:56;0.93;;;0.87;;
10463;SDS011;5279;42.048;24.638;2023-04-19T11:19:23;0.60;;;0.60;;
10463;SDS011;5279;42.048;24.638;2023-04-19T11:21:50;1.50;;;0.60;;
10463;SDS011;5279;42.048;24.638;2023-04-19T11:24:17;0.93;;;0.70;;
10463;SDS011;5279;42.048;24.638;2023-04-19T11:26:44;0.67;;;0.67;;
10463;SDS011;5279;42.048;24.638;2023-04-19T11:29:13;0.70;;;0.70;;
10463;SDS011;5279;42.048;24.638;2023-04-19T11:31:42;1.00;;;0.73;;
10463;SDS011;5279;42.048;24.638;2023-04-19T11:34:10;0.63;;;0.63;;
10463;SDS011;5279;42.048;24.638;2023-04-19T11:36:46;0.80;;;0.80;;
10463;SDS011;5279;42.048;24.638;2023-04-19T11:39:13;1.13;;;0.90;;
10463;SDS011;5279;42.048;24.638;2023-04-19T11:41:40;0.70;;;0.70;;
10463;SDS011;5279;42.048;24.638;2023-04-19T11:44:14;1.00;;;0.80;;
10463;SDS011;5279;42.048;24.638;2023-04-19T11:46:56;0.80;;;0.80;;
10463;SDS011;5279;42.048;24.638;2023-04-19T11:49:27;1.70;;;1.23;;
10463;SDS011;5279;42.048;24.638;2023-04-19T11:51:55;0.80;;;0.80;;
10463;SDS011;5279;42.048;24.638;2023-04-19T11:54:23;0.80;;;0.80;;
10463;SDS011;5279;42.048;24.638;2023-04-19T11:57:00;2.90;;;1.57;;
10463;SDS011;5279;42.048;24.638;2023-04-19T11:59:34;0.80;;;0.80;;
10463;SDS011;5279;42.048;24.638;2023-04-19T12:02:05;1.97;;;1.40;;
10463;SDS011;5279;42.048;24.638;2023-04-19T12:04:33;1.20;;;0.83;;
10463;SDS011;5279;42.048;24.638;2023-04-19T12:07:00;0.70;;;0.70;;
10463;SDS011;5279;42.048;24.638;2023-04-19T12:09:28;2.40;;;1.10;;
10463;SDS011;5279;42.048;24.638;2023-04-19T12:11:55;1.03;;;1.00;;
10463;SDS011;5279;42.048;24.638;2023-04-19T12:14:22;0.97;;;0.90;;
10463;SDS011;5279;42.048;24.638;2023-04-19T12:17:07;1.03;;;1.00;;
10463;SDS011;5279;42.048;24.638;2023-04-19T12:19:36;0.70;;;0.70;;
10463;SDS011;5279;42.048;24.638;2023-04-19T12:22:08;0.90;;;0.90;;
10463;SDS011;5279;42.048;24.638;2023-04-19T12:24:36;1.10;;;1.00;;
10463;SDS011;5279;42.048;24.638;2023-04-19T12:27:03;1.03;;;0.93;;
10463;SDS011;5279;42.048;24.638;2023-04-19T12:29:30;0.87;;;0.87;;
10463;SDS011;5279;42.048;24.638;2023-04-19T12:31:57;1.30;;;1.20;;
10463;SDS011;5279;42.048;24.638;2023-04-19T12:34:26;0.80;;;0.80;;
10463;SDS011;5279;42.048;24.638;2023-04-19T12:36:53;1.10;;;1.00;;
10463;SDS011;5279;42.048;24.638;2023-04-19T12:39:20;1.03;;;0.93;;
10463;SDS011;5279;42.048;24.638;2023-04-19T12:41:47;1.57;;;1.00;;
10463;SDS011;5279;42.048;24.638;2023-04-19T12:44:14;1.60;;;1.00;;
10463;SDS011;5279;42.048;24.638;2023-04-19T12:46:41;3.30;;;1.77;;
10463;SDS011;5279;42.048;24.638;2023-04-19T12:49:08;1.67;;;1.50;;
10463;SDS011;5279;42.048;24.638;2023-04-19T12:51:36;1.00;;;1.00;;
10463;SDS011;5279;42.048;24.638;2023-04-19T12:54:03;1.60;;;1.00;;
10463;SDS011;5279;42.048;24.638;2023-04-19T12:56:31;1.07;;;1.00;;
10463;SDS011;5279;42.048;24.638;2023-04-19T12:58:58;1.43;;;0.90;;
10463;SDS011;5279;42.048;24.638;2023-04-19T13:01:25;1.33;;;1.23;;
10463;SDS011;5279;42.048;24.638;2023-04-19T13:03:52;1.30;;;1.10;;
10463;SDS011;5279;42.048;24.638;2023-04-19T13:06:19;1.20;;;1.10;;
10463;SDS011;5279;42.048;24.638;2023-04-19T13:08:47;1.20;;;1.10;;
10463;SDS011;5279;42.048;24.638;2023-04-19T13:11:14;1.10;;;1.10;;
10463;SDS011;5279;42.048;24.638;2023-04-19T13:13:47;1.33;;;1.23;;
10463;SDS011;5279;42.048;24.638;2023-04-19T13:16:14;1.63;;;1.20;;
10463;SDS011;5279;42.048;24.638;2023-04-19T13:18:41;2.13;;;1.20;;
10463;SDS011;5279;42.048;24.638;2023-04-19T13:21:08;1.20;;;1.10;;
10463;SDS011;5279;42.048;24.638;2023-04-19T13:23:35;1.27;;;1.17;;
10463;SDS011;5279;42.048;24.638;2023-04-19T13:26:04;1.40;;;1.30;;
10463;SDS011;5279;42.048;24.638;2023-04-19T13:28:32;1.30;;;1.20;;
10463;SDS011;5279;42.048;24.638;2023-04-19T13:31:01;1.23;;;1.10;;
10463;SDS011;5279;42.048;24.638;2023-04-19T13:33:28;1.33;;;1.10;;
10463;SDS011;5279;42.048;24.638;2023-04-19T13:35:55;1.40;;;1.30;;
10463;SDS011;5279;42.048;24.638;2023-04-19T13:38:22;0.97;;;0.97;;
10463;SDS011;5279;42.048;24.638;2023-04-19T13:40:49;1.43;;;0.80;;
10463;SDS011;5279;42.048;24.638;2023-04-19T13:43:17;2.83;;;1.10;;
10463;SDS011;5279;42.048;24.638;2023-04-19T13:45:44;1.30;;;1.13;;
10463;SDS011;5279;42.048;24.638;2023-04-19T13:48:11;1.47;;;1.37;;
10463;SDS011;5279;42.048;24.638;2023-04-19T13:50:38;1.50;;;1.40;;
10463;SDS011;5279;42.048;24.638;2023-04-19T13:53:04;1.30;;;1.20;;
10463;SDS011;5279;42.048;24.638;2023-04-19T13:55:31;1.50;;;1.40;;
10463;SDS011;5279;42.048;24.638;2023-04-19T13:57:58;2.33;;;2.00;;
10463;SDS011;5279;42.048;24.638;2023-04-19T14:00:27;1.20;;;1.20;;
10463;SDS011;5279;42.048;24.638;2023-04-19T14:02:54;1.70;;;1.23;;
10463;SDS011;5279;42.048;24.638;2023-04-19T14:05:21;1.50;;;1.40;;
10463;SDS011;5279;42.048;24.638;2023-04-19T14:07:48;1.73;;;1.33;;
10463;SDS011;5279;42.048;24.638;2023-04-19T14:10:15;1.30;;;1.20;;
10463;SDS011;5279;42.048;24.638;2023-04-19T14:12:42;1.30;;;1.20;;
10463;SDS011;5279;42.048;24.638;2023-04-19T14:15:09;1.10;;;1.00;;
10463;SDS011;5279;42.048;24.638;2023-04-19T14:17:38;1.00;;;1.00;;
10463;SDS011;5279;42.048;24.638;2023-04-19T14:20:05;1.03;;;0.93;;
10463;SDS011;5279;42.048;24.638;2023-04-19T14:22:32;1.10;;;1.00;;
10463;SDS011;5279;42.048;24.638;2023-04-19T14:25:00;1.30;;;1.00;;
10463;SDS011;5279;42.048;24.638;2023-04-19T14:27:26;1.00;;;1.00;;
10463;SDS011;5279;42.048;24.638;2023-04-19T14:29:53;1.10;;;1.00;;
10463;SDS011;5279;42.048;24.638;2023-04-19T14:32:20;1.10;;;1.00;;
10463;SDS011;5279;42.048;24.638;2023-04-19T14:34:48;1.70;;;0.87;;
10463;SDS011;5279;42.048;24.638;2023-04-19T14:37:15;1.00;;;1.00;;
10463;SDS011;5279;42.048;24.638;2023-04-19T14:39:43;1.20;;;1.10;;
10463;SDS011;5279;42.048;24.638;2023-04-19T14:42:10;1.67;;;1.40;;
10463;SDS011;5279;42.048;24.638;2023-04-19T14:44:37;1.30;;;1.20;;
10463;SDS011;5279;42.048;24.638;2023-04-19T14:47:04;1.80;;;1.27;;
10463;SDS011;5279;42.048;24.638;2023-04-19T14:49:31;2.43;;;1.20;;
10463;SDS011;5279;42.048;24.638;2023-04-19T14:51:59;1.33;;;1.23;;
10463;SDS011;5279;42.048;24.638;2023-04-19T14:54:28;1.30;;;1.00;;
10463;SDS011;5279;42.048;24.638;2023-04-19T14:56:54;1.40;;;1.30;;
10463;SDS011;5279;42.048;24.638;2023-04-19T14:59:21;0.90;;;0.90;;
10463;SDS011;5279;42.048;24.638;2023-04-19T15:01:48;1.40;;;1.20;;
10463;SDS011;5279;42.048;24.638;2023-04-19T15:04:15;1.43;;;1.33;;
10463;SDS011;5279;42.048;24.638;2023-04-19T15:06:43;1.40;;;1.30;;
10463;SDS011;5279;42.048;24.638;2023-04-19T15:09:11;1.10;;;1.10;;
10463;SDS011;5279;42.048;24.638;2023-04-19T15:11:38;2.37;;;1.00;;
10463;SDS011;5279;42.048;24.638;2023-04-19T15:14:05;1.20;;;1.10;;
10463;SDS011;5279;42.048;24.638;2023-04-19T15:16:32;1.40;;;1.30;;
10463;SDS011;5279;42.048;24.638;2023-04-19T15:18:59;1.03;;;0.90;;
10463;SDS011;5279;42.048;24.638;2023-04-19T15:21:26;1.60;;;1.30;;
10463;SDS011;5279;42.048;24.638;2023-04-19T15:23:54;1.10;;;1.10;;
10463;SDS011;5279;42.048;24.638;2023-04-19T15:26:22;1.63;;;1.00;;
10463;SDS011;5279;42.048;24.638;2023-04-19T15:28:50;1.30;;;1.20;;
10463;SDS011;5279;42.048;24.638;2023-04-19T15:31:17;1.20;;;1.10;;
10463;SDS011;5279;42.048;24.638;2023-04-19T15:33:43;1.17;;;1.10;;
10463;SDS011;5279;42.048;24.638;2023-04-19T15:36:10;1.37;;;1.10;;
10463;SDS011;5279;42.048;24.638;2023-04-19T15:38:37;1.13;;;1.03;;
10463;SDS011;5279;42.048;24.638;2023-04-19T15:41:04;1.10;;;1.03;;
10463;SDS011;5279;42.048;24.638;2023-04-19T15:43:32;1.90;;;1.10;;
10463;SDS011;5279;42.048;24.638;2023-04-19T15:45:59;1.00;;;1.00;;
10463;SDS011;5279;42.048;24.638;2023-04-19T15:48:26;0.93;;;0.93;;
10463;SDS011;5279;42.048;24.638;2023-04-19T15:50:56;1.47;;;1.37;;
10463;SDS011;5279;42.048;24.638;2023-04-19T15:53:23;0.90;;;0.90;;
10463;SDS011;5279;42.048;24.638;2023-04-19T15:55:50;1.47;;;1.37;;
10463;SDS011;5279;42.048;24.638;2023-04-19T15:58:17;1.30;;;1.20;;
10463;SDS011;5279;42.048;24.638;2023-04-19T16:00:45;1.63;;;1.53;;
10463;SDS011;5279;42.048;24.638;2023-04-19T16:03:12;1.23;;;1.17;;
10463;SDS011;5279;42.048;24.638;2023-04-19T16:05:39;1.27;;;1.17;;
10463;SDS011;5279;42.048;24.638;2023-04-19T16:08:06;1.23;;;1.13;;
10463;SDS011;5279;42.048;24.638;2023-04-19T16:10:34;1.40;;;1.30;;
10463;SDS011;5279;42.048;24.638;2023-04-19T16:13:01;1.60;;;1.47;;
10463;SDS011;5279;42.048;24.638;2023-04-19T16:15:29;1.60;;;1.20;;
10463;SDS011;5279;42.048;24.638;2023-04-19T16:17:58;1.50;;;1.40;;
10463;SDS011;5279;42.048;24.638;2023-04-19T16:20:25;1.10;;;1.10;;
10463;SDS011;5279;42.048;24.638;2023-04-19T16:22:52;1.20;;;1.10;;
10463;SDS011;5279;42.048;24.638;2023-04-19T16:25:19;1.40;;;1.20;;
10463;SDS011;5279;42.048;24.638;2023-04-19T16:27:46;1.43;;;1.33;;
10463;SDS011;5279;42.048;24.638;2023-04-19T16:30:13;1.10;;;1.10;;
10463;SDS011;5279;42.048;24.638;2023-04-19T16:32:41;1.37;;;1.27;;
10463;SDS011;5279;42.048;24.638;2023-04-19T16:35:10;1.63;;;1.53;;
10463;SDS011;5279;42.048;24.638;2023-04-19T16:37:36;2.40;;;2.23;;
10463;SDS011;5279;42.048;24.638;2023-04-19T16:40:04;1.80;;;1.70;;
10463;SDS011;5279;42.048;24.638;2023-04-19T16:42:33;2.47;;;1.40;;
10463;SDS011;5279;42.048;24.638;2023-04-19T16:45:00;1.57;;;1.40;;
10463;SDS011;5279;42.048;24.638;2023-04-19T16:47:27;1.40;;;1.30;;
10463;SDS011;5279;42.048;24.638;2023-04-19T16:49:55;1.40;;;1.20;;